Time;durP1;ratioP1;P1;durP2;ratioP2;P2;SDS_P1;SDS_P2;PMS_P1;PMS_P2;Temp;Humidity;BMP_temperature;BMP_pressure;BME280_temperature;BME280_humidity;BME280_pressure;Samples;Min_cycle;Max_cycle;Signal;HPM_P1;HPM_P2
2023/10/08 00:02:36;;;;;;;5.27;2.50;;;;;;;19.48;36.20;97952.34;6168306;28;20273;-56
2023/10/08 00:05:40;;;;;;;2.73;2.20;;;;;;;19.16;36.50;97942.25;6178688;28;20229;-59
2023/10/08 00:08:44;;;;;;;5.33;2.80;;;;;;;19.22;36.09;97933.00;6168106;28;20229;-59
2023/10/08 00:11:53;;;;;;;4.27;2.87;;;;;;;19.27;35.60;97931.03;6157588;28;20787;-59
2023/10/08 00:14:59;;;;;;;4.93;2.43;;;;;;;19.29;37.27;97934.22;6170817;28;20238;-60
2023/10/08 00:18:05;;;;;;;4.33;2.23;;;;;;;19.20;35.97;97954.09;6166928;28;20256;-57
2023/10/08 00:24:15;;;;;;;7.57;3.00;;;;;;;19.34;36.02;97936.84;6176260;28;20570;-58
2023/10/08 00:27:17;;;;;;;3.40;2.40;;;;;;;19.37;35.61;97942.78;6173426;28;20233;-58
2023/10/08 00:30:20;;;;;;;4.40;2.50;;;;;;;19.37;36.50;97934.69;6178178;28;20675;-57
2023/10/08 00:33:22;;;;;;;6.00;2.53;;;;;;;19.59;35.50;97934.88;6156309;28;20690;-58
2023/10/08 00:36:26;;;;;;;6.90;2.87;;;;;;;19.49;35.96;97926.94;6162017;28;20230;-58
2023/10/08 00:39:34;;;;;;;5.57;3.20;;;;;;;19.14;35.85;97872.34;6162130;28;20225;-55
2023/10/08 00:42:36;;;;;;;3.80;2.73;;;;;;;19.34;35.45;97909.84;6149821;28;20341;-59
2023/10/08 00:45:43;;;;;;;6.13;2.60;;;;;;;19.40;35.79;97917.88;6166171;28;20240;-59
2023/10/08 00:48:46;;;;;;;4.57;2.80;;;;;;;19.36;35.76;97923.06;6168227;28;20612;-56
2023/10/08 00:55:28;;;;;;;7.63;2.97;;;;;;;19.46;35.97;97924.81;6171000;28;20249;-59
2023/10/08 00:58:33;;;;;;;8.77;3.00;;;;;;;19.46;35.42;97936.44;6158687;28;20830;-59
2023/10/08 01:01:38;;;;;;;4.67;2.77;;;;;;;19.50;36.24;97937.44;6164371;28;20394;-58
2023/10/08 01:04:44;;;;;;;6.87;2.97;;;;;;;19.47;36.39;97916.41;6163069;28;20699;-58
2023/10/08 01:07:51;;;;;;;5.80;3.03;;;;;;;19.50;35.53;97940.13;6167020;28;20362;-55
2023/10/08 01:11:00;;;;;;;5.87;2.87;;;;;;;19.46;35.83;97928.31;6196486;28;20237;-55
2023/10/08 01:14:07;;;;;;;5.47;2.70;;;;;;;19.29;36.79;97907.22;6164951;28;20230;-60
2023/10/08 01:17:15;;;;;;;5.43;3.00;;;;;;;19.17;36.81;97898.75;6153024;28;20229;-58
2023/10/08 01:20:32;;;;;;;6.00;2.70;;;;;;;19.26;36.27;97909.69;6158729;28;20245;-59
2023/10/08 01:23:35;;;;;;;6.57;2.63;;;;;;;19.24;36.60;97898.38;6158461;28;20225;-58
2023/10/08 01:26:40;;;;;;;8.50;2.90;;;;;;;19.37;35.42;97894.16;6165787;28;20237;-58
2023/10/08 01:29:44;;;;;;;5.60;2.67;;;;;;;19.22;36.51;97884.38;6164795;28;20237;-59
2023/10/08 01:32:46;;;;;;;6.17;2.93;;;;;;;19.08;38.04;97884.31;6167102;28;20732;-58
2023/10/08 01:35:49;;;;;;;4.67;3.03;;;;;;;18.81;40.26;97884.94;6168656;28;20238;-59
2023/10/08 01:38:51;;;;;;;6.30;2.43;;;;;;;18.83;38.98;97871.97;6176561;28;20363;-59
2023/10/08 01:41:53;;;;;;;6.17;3.03;;;;;;;18.86;38.15;97865.16;6153963;28;20584;-60
2023/10/08 01:44:56;;;;;;;5.10;2.60;;;;;;;18.91;38.38;97862.41;6148913;28;20651;-59
2023/10/08 01:47:58;;;;;;;5.30;2.77;;;;;;;18.84;38.80;97864.66;6159598;28;20320;-53
2023/10/08 01:51:09;;;;;;;4.07;2.63;;;;;;;18.90;39.16;97868.91;6165424;28;21002;-56
2023/10/08 01:54:11;;;;;;;4.07;2.73;;;;;;;18.86;39.25;97865.16;6168716;28;20246;-59
2023/10/08 01:57:14;;;;;;;6.77;3.37;;;;;;;18.92;38.68;97872.13;6165171;28;20563;-59
2023/10/08 02:00:20;;;;;;;6.07;2.80;;;;;;;18.86;39.26;97884.88;6172295;28;20597;-59
2023/10/08 02:03:22;;;;;;;5.50;2.87;;;;;;;18.89;39.32;97865.41;6167699;28;20233;-57
2023/10/08 02:06:25;;;;;;;5.53;2.80;;;;;;;18.86;40.12;97867.88;6152163;28;20229;-58
2023/10/08 02:09:27;;;;;;;7.63;2.67;;;;;;;18.81;40.48;97869.53;6160882;28;20233;-59
2023/10/08 02:12:30;;;;;;;5.47;2.87;;;;;;;18.81;41.04;97880.34;6150299;28;20230;-59
2023/10/08 02:15:32;;;;;;;5.60;2.27;;;;;;;18.80;41.83;97865.25;6152457;28;20237;-57
2023/10/08 02:18:35;;;;;;;4.93;2.77;;;;;;;18.80;41.75;97886.84;6167594;28;20605;-56
2023/10/08 02:21:39;;;;;;;7.80;3.10;;;;;;;18.83;41.49;97874.66;6167841;28;20252;-55
2023/10/08 02:24:42;;;;;;;5.37;3.03;;;;;;;18.75;42.67;97867.22;6169777;28;20229;-52
2023/10/08 02:27:45;;;;;;;5.30;3.17;;;;;;;18.86;41.36;97884.06;6153935;28;20763;-55
2023/10/08 02:30:47;;;;;;;6.87;2.93;;;;;;;18.83;42.02;97868.47;6148882;28;20226;-59
2023/10/08 02:33:50;;;;;;;6.17;2.80;;;;;;;18.79;41.62;97869.03;6161078;28;20237;-57
2023/10/08 02:36:53;;;;;;;3.87;2.50;;;;;;;18.72;42.33;97857.81;6165199;28;20290;-59
2023/10/08 02:39:55;;;;;;;6.20;2.50;;;;;;;18.64;43.07;97861.09;6164223;28;20225;-59
2023/10/08 02:42:58;;;;;;;4.83;3.10;;;;;;;18.58;43.62;97869.56;6169178;28;20222;-58
2023/10/08 02:46:00;;;;;;;4.77;2.67;;;;;;;18.46;43.61;97841.09;6173875;28;20239;-58
2023/10/08 02:49:03;;;;;;;3.90;2.87;;;;;;;18.63;42.63;97864.09;6160739;28;20261;-58
2023/10/08 02:52:08;;;;;;;6.43;2.60;;;;;;;18.59;42.70;97861.19;6158396;28;20373;-58
2023/10/08 02:58:47;;;;;;;4.83;2.60;;;;;;;18.44;43.53;97837.88;6156647;28;20832;-56
2023/10/08 03:01:52;;;;;;;8.10;3.20;;;;;;;18.46;44.18;97856.47;6175636;28;20618;-58
2023/10/08 03:04:54;;;;;;;8.60;3.50;;;;;;;18.39;44.24;97854.13;6169675;28;20371;-56
2023/10/08 03:07:57;;;;;;;6.60;2.60;;;;;;;18.30;44.70;97851.25;6172919;28;20240;-54
2023/10/08 03:11:03;;;;;;;4.40;2.83;;;;;;;18.30;44.15;97867.44;6171191;28;20240;-59
2023/10/08 03:14:14;;;;;;;6.70;3.03;;;;;;;18.42;43.68;97869.75;6155622;28;20249;-57
2023/10/08 03:17:20;;;;;;;5.07;3.00;;;;;;;18.44;43.38;97872.94;6159922;28;20229;-57
2023/10/08 03:20:39;;;;;;;4.23;2.50;;;;;;;18.47;44.48;97875.09;6158562;28;20264;-58
2023/10/08 03:23:47;;;;;;;4.27;2.20;;;;;;;18.71;42.13;97871.56;6165269;28;20237;-59
2023/10/08 03:26:55;;;;;;;4.90;2.53;;;;;;;18.53;43.48;97873.94;6166670;28;20241;-55
2023/10/08 03:29:58;;;;;;;7.67;3.07;;;;;;;18.51;43.24;97888.78;6168101;28;20250;-56
2023/10/08 03:33:04;;;;;;;5.07;2.67;;;;;;;18.71;43.16;97885.06;6169026;28;20230;-59
2023/10/08 03:36:20;;;;;;;4.77;2.90;;;;;;;18.77;42.88;97856.94;6163119;28;20584;-58
2023/10/08 03:39:24;;;;;;;4.93;2.63;;;;;;;18.75;42.39;97859.91;6163367;28;20643;-58
2023/10/08 03:42:33;;;;;;;5.00;2.83;;;;;;;18.70;42.85;97859.97;6162891;28;20232;-59
2023/10/08 03:45:54;;;;;;;5.77;2.97;;;;;;;18.66;43.51;97880.50;6163385;28;20284;-59
2023/10/08 03:48:57;;;;;;;7.03;2.87;;;;;;;18.67;42.65;97860.53;6170673;28;20252;-59
2023/10/08 03:52:00;;;;;;;5.83;2.50;;;;;;;18.69;42.91;97861.06;6174954;28;20324;-59
2023/10/08 03:58:31;;;;;;;5.37;2.93;;;;;;;18.88;42.69;97850.31;6163225;28;20242;-58
2023/10/08 04:01:34;;;;;;;4.53;2.50;;;;;;;18.70;42.77;97884.25;6161441;28;20711;-58
2023/10/08 04:04:49;;;;;;;7.03;2.60;;;;;;;18.78;42.87;97850.44;6162036;28;20241;-57
2023/10/08 04:11:20;;;;;;;5.70;2.83;;;;;;;18.53;43.99;97873.94;6168239;28;20331;-60
2023/10/08 04:14:24;;;;;;;7.33;2.80;;;;;;;18.69;43.27;97884.56;6175319;28;20918;-58
2023/10/08 04:17:27;;;;;;;4.70;2.57;;;;;;;18.81;43.40;97880.34;6171051;28;20275;-57
2023/10/08 04:20:38;;;;;;;6.47;3.07;;;;;;;18.83;43.02;97866.56;6176375;28;20236;-57
2023/10/08 04:23:44;;;;;;;4.73;2.97;;;;;;;18.63;44.10;97872.19;6161407;28;20236;-59
2023/10/08 04:26:48;;;;;;;6.67;2.97;;;;;;;18.54;44.91;97877.44;6162848;28;20744;-56
2023/10/08 04:29:50;;;;;;;4.63;2.53;;;;;;;18.56;43.67;97859.03;6163382;28;20620;-55
2023/10/08 04:32:52;;;;;;;7.87;2.90;;;;;;;18.70;43.53;97854.56;6170115;28;20606;-58
2023/10/08 04:36:01;;;;;;;3.97;2.53;;;;;;;18.54;44.05;97853.16;6168555;28;20718;-59
2023/10/08 04:39:14;;;;;;;5.50;2.80;;;;;;;18.60;44.16;97840.38;6170607;28;20592;-57
2023/10/08 04:42:25;;;;;;;6.13;2.70;;;;;;;18.52;43.99;97836.44;6172721;28;20748;-59
2023/10/08 04:45:33;;;;;;;4.87;2.60;;;;;;;18.31;45.00;97825.09;6143353;28;20715;-59
2023/10/08 04:48:36;;;;;;;7.63;2.87;;;;;;;18.45;44.20;97819.81;6155413;28;20233;-58
2023/10/08 04:51:43;;;;;;;10.27;2.57;;;;;;;18.55;45.10;97833.16;6165687;28;20233;-58
2023/10/08 04:54:54;;;;;;;5.17;2.80;;;;;;;18.47;44.43;97813.03;6167920;28;20320;-58
2023/10/08 04:57:56;;;;;;;6.20;2.83;;;;;;;18.51;45.34;97821.34;6168707;28;20229;-58
2023/10/08 05:01:16;;;;;;;7.13;3.03;;;;;;;18.44;45.27;97824.41;6175121;28;20240;-59
2023/10/08 05:11:14;;;;;;;6.40;3.00;;;;;;;18.33;44.88;97814.84;6158786;28;20941;-59
2023/10/08 05:14:34;;;;;;;7.03;2.70;;;;;;;18.54;43.85;97828.88;6160608;28;20261;-59
2023/10/08 05:17:57;;;;;;;5.50;2.47;;;;;;;18.46;45.31;97824.09;6161939;28;20771;-59
2023/10/08 05:20:59;;;;;;;4.57;2.27;;;;;;;18.42;44.63;97829.28;6164747;28;20332;-57
2023/10/08 05:24:13;;;;;;;7.37;2.60;;;;;;;18.45;44.37;97836.00;6157115;28;20771;-58
2023/10/08 05:27:37;;;;;;;5.67;2.77;;;;;;;18.57;44.41;97844.47;6174071;28;20209;-59
2023/10/08 05:30:38;;;;;;;8.53;3.23;;;;;;;18.50;44.97;97858.31;6156021;28;20650;-58
2023/10/08 05:34:14;;;;;;;4.57;2.50;;;;;;;18.46;44.65;97857.28;6156401;28;20225;-58
2023/10/08 05:37:37;;;;;;;9.63;3.43;;;;;;;18.52;44.37;97848.03;6163695;28;20729;-57
2023/10/08 05:50:42;;;;;;;7.60;2.73;;;;;;;18.32;45.64;97859.06;6168903;28;20684;-57
2023/10/08 05:53:44;;;;;;;5.70;2.90;;;;;;;18.28;45.39;97855.34;6157331;28;21059;-57
2023/10/08 05:57:06;;;;;;;6.47;2.40;;;;;;;18.18;45.32;97864.34;6160308;28;20237;-56
2023/10/08 06:03:11;;;;;;;5.63;2.67;;;;;;;18.14;45.45;97866.00;6166285;28;20705;-58
2023/10/08 06:12:29;;;;;;;6.50;2.83;;;;;;;18.08;46.19;97877.13;6165819;28;20729;-57
2023/10/08 06:18:57;;;;;;;7.60;2.97;;;;;;;18.15;46.60;97872.22;6159701;28;20241;-57
2023/10/08 06:22:04;;;;;;;7.47;2.93;;;;;;;18.28;45.89;97887.72;6162405;28;20237;-58
2023/10/08 06:25:23;;;;;;;6.50;2.63;;;;;;;18.37;45.54;97880.56;6161146;28;20241;-57
2023/10/08 06:28:26;;;;;;;7.47;2.70;;;;;;;18.27;47.10;97897.69;6183634;28;20320;-59
2023/10/08 06:31:31;;;;;;;4.77;2.70;;;;;;;18.36;45.47;97889.75;6166973;28;20233;-58
2023/10/08 06:34:33;;;;;;;8.03;2.80;;;;;;;18.37;45.50;97895.97;6169799;28;20226;-57
2023/10/08 06:37:35;;;;;;;8.53;2.80;;;;;;;18.42;45.54;97906.69;6173347;28;20253;-59
2023/10/08 06:43:49;;;;;;;7.83;3.00;;;;;;;18.44;46.03;97872.16;6161152;28;20296;-59
2023/10/08 06:46:56;;;;;;;6.30;2.97;;;;;;;18.46;44.97;97878.06;6157976;28;20233;-59
2023/10/08 06:49:58;;;;;;;11.77;3.00;;;;;;;18.47;46.46;97893.97;6164521;28;20239;-57
2023/10/08 06:53:06;;;;;;;4.80;2.80;;;;;;;18.35;48.42;97901.66;6167210;28;20275;-59
2023/10/08 06:56:12;;;;;;;8.20;3.00;;;;;;;18.72;45.23;97905.59;6168358;28;20241;-58
2023/10/08 06:59:17;;;;;;;6.50;2.40;;;;;;;18.75;45.28;97921.19;6174274;28;20228;-58
2023/10/08 07:02:19;;;;;;;6.23;2.90;;;;;;;18.82;45.11;97891.97;6156799;28;20226;-58
2023/10/08 07:05:22;;;;;;;7.87;3.30;;;;;;;18.75;46.23;97924.69;6161582;28;20326;-59
2023/10/08 07:08:27;;;;;;;10.20;3.20;;;;;;;18.97;45.15;97931.44;6159024;28;20385;-57
2023/10/08 07:11:29;;;;;;;10.07;2.80;;;;;;;18.97;45.23;97942.25;6164004;28;20304;-58
2023/10/08 07:14:31;;;;;;;8.83;2.60;;;;;;;18.85;45.75;97937.25;6168219;28;20307;-59
2023/10/08 07:17:40;;;;;;;8.77;3.03;;;;;;;18.75;46.58;97940.06;6173169;28;20248;-58
2023/10/08 07:20:45;;;;;;;5.30;3.10;;;;;;;18.69;46.64;97942.03;6168193;28;20241;-55
2023/10/08 07:23:56;;;;;;;7.77;3.17;;;;;;;18.82;46.68;97940.53;6167454;28;20243;-58
2023/10/08 07:27:09;;;;;;;7.90;2.73;;;;;;;18.75;47.40;97938.19;6150851;28;20768;-58
2023/10/08 07:30:26;;;;;;;6.77;3.27;;;;;;;18.66;48.64;97934.47;6158407;28;20218;-58
2023/10/08 07:33:36;;;;;;;5.53;2.70;;;;;;;18.69;48.53;97920.44;6162652;28;20264;-55
2023/10/08 07:36:38;;;;;;;4.67;2.77;;;;;;;18.83;47.77;97936.75;6160918;28;20243;-53
2023/10/08 07:39:46;;;;;;;8.57;2.87;;;;;;;18.96;46.72;97927.91;6167914;28;20244;-56
2023/10/08 07:42:51;;;;;;;8.37;3.20;;;;;;;19.35;45.56;97934.97;6176137;28;20607;-55
2023/10/08 07:45:54;;;;;;;8.30;3.57;;;;;;;19.28;46.96;97929.13;6174510;28;20294;-58
2023/10/08 07:48:59;;;;;;;7.13;3.33;;;;;;;19.45;44.58;97944.81;6158804;28;20237;-59
2023/10/08 07:52:04;;;;;;;7.43;3.03;;;;;;;19.29;46.22;97949.63;6150351;28;20298;-59
2023/10/08 07:55:07;;;;;;;6.73;2.77;;;;;;;19.47;45.36;97956.16;6168154;28;20230;-59
2023/10/08 07:58:11;;;;;;;7.50;3.20;;;;;;;19.40;45.49;97950.28;6164773;28;20601;-58
2023/10/08 08:01:14;;;;;;;7.33;2.97;;;;;;;19.40;45.41;97977.31;6166116;28;20336;-58
2023/10/08 08:04:22;;;;;;;5.40;3.00;;;;;;;19.63;45.05;97967.56;6174598;28;20746;-57
2023/10/08 08:07:25;;;;;;;7.73;3.70;;;;;;;19.68;44.90;97975.59;6178859;28;20244;-56
2023/10/08 08:10:29;;;;;;;5.17;2.57;;;;;;;19.66;45.46;97996.72;6161439;28;20237;-58
2023/10/08 08:13:33;;;;;;;7.87;2.63;;;;;;;20.03;44.48;97993.16;6159327;28;20226;-55
2023/10/08 08:16:37;;;;;;;8.07;3.00;;;;;;;19.69;45.14;97988.81;6144485;28;20443;-59
2023/10/08 08:19:47;;;;;;;6.77;2.50;;;;;;;19.83;45.42;98018.63;6155883;28;20226;-57
2023/10/08 08:22:54;;;;;;;11.13;3.37;;;;;;;19.76;45.49;98008.19;6158688;28;20237;-57
2023/10/08 08:26:11;;;;;;;7.30;3.43;;;;;;;19.74;45.40;98021.16;6171291;28;20238;-59
2023/10/08 08:29:15;;;;;;;6.00;2.87;;;;;;;19.76;46.04;98015.50;6175719;28;20765;-58
2023/10/08 08:32:21;;;;;;;7.07;3.17;;;;;;;19.86;45.46;98014.53;6163104;28;20234;-58
2023/10/08 08:35:24;;;;;;;7.23;3.00;;;;;;;19.89;45.05;98017.44;6159747;28;20232;-55
2023/10/08 08:38:32;;;;;;;9.13;3.07;;;;;;;20.02;45.10;98022.09;6160682;28;20799;-59
2023/10/08 08:41:38;;;;;;;13.83;3.30;;;;;;;20.02;45.47;98032.91;6163224;28;20233;-56
2023/10/08 08:44:46;;;;;;;6.77;2.77;;;;;;;19.93;45.85;98025.75;6165099;28;20229;-56
2023/10/08 08:47:49;;;;;;;5.47;2.90;;;;;;;19.72;46.41;98044.19;6173796;28;20269;-59
2023/10/08 08:50:53;;;;;;;6.40;2.80;;;;;;;19.66;46.19;98048.88;6175372;28;20245;-54
2023/10/08 08:53:56;;;;;;;6.13;3.03;;;;;;;19.46;46.67;98062.63;6177577;28;20686;-56
2023/10/08 08:57:04;;;;;;;7.63;3.60;;;;;;;19.33;46.86;98051.41;6149253;28;20710;-59
2023/10/08 09:00:10;;;;;;;9.57;2.97;;;;;;;19.07;48.24;98063.63;6139972;28;20245;-56
2023/10/08 09:03:13;;;;;;;9.23;3.30;;;;;;;18.93;48.84;98066.22;6159820;28;20230;-55
2023/10/08 09:06:16;;;;;;;5.73;2.80;;;;;;;18.89;48.25;98050.88;6167068;28;20258;-59
2023/10/08 09:09:24;;;;;;;6.43;3.40;;;;;;;18.89;48.07;98075.97;6171712;28;20291;-60
2023/10/08 09:12:27;;;;;;;4.63;3.27;;;;;;;18.84;48.89;98089.50;6163045;28;20607;-58
2023/10/08 09:15:30;;;;;;;8.07;3.07;;;;;;;18.74;50.42;98101.22;6169701;28;20237;-60
2023/10/08 09:18:32;;;;;;;6.23;3.07;;;;;;;18.68;50.47;98117.72;6161202;28;20812;-58
2023/10/08 09:21:34;;;;;;;7.77;2.90;;;;;;;18.61;50.64;98125.31;6155631;28;20244;-58
2023/10/08 09:24:39;;;;;;;6.53;3.07;;;;;;;18.52;50.93;98125.13;6155787;28;20726;-54
2023/10/08 09:27:46;;;;;;;7.67;2.90;;;;;;;18.50;50.25;98143.50;6147554;28;20240;-59
2023/10/08 09:30:48;;;;;;;6.83;3.20;;;;;;;18.44;49.96;98158.09;6167662;28;20247;-59
2023/10/08 09:33:55;;;;;;;8.37;3.50;;;;;;;18.43;50.43;98167.28;6163357;28;20721;-59
2023/10/08 09:37:01;;;;;;;7.03;2.83;;;;;;;18.33;51.03;98180.84;6165815;28;20372;-56
2023/10/08 09:40:09;;;;;;;4.90;2.93;;;;;;;18.32;50.95;98190.81;6162830;28;20663;-57
2023/10/08 09:43:11;;;;;;;5.77;2.70;;;;;;;18.24;53.44;98211.09;6156967;28;20241;-59
2023/10/08 09:46:25;;;;;;;5.23;1.50;;;;;;;18.04;55.29;98224.69;6149103;28;20238;-57
2023/10/08 09:49:32;;;;;;;3.77;1.20;;;;;;;17.54;57.17;98231.84;6174257;28;20229;-57
2023/10/08 09:52:43;;;;;;;3.30;0.97;;;;;;;17.23;58.50;98256.09;6162507;28;20229;-59
2023/10/08 09:55:55;;;;;;;2.63;1.00;;;;;;;17.07;59.49;98264.47;6165187;28;20600;-58
2023/10/08 09:58:59;;;;;;;4.07;0.73;;;;;;;16.94;60.02;98263.91;6171091;28;20234;-57
2023/10/08 10:02:03;;;;;;;5.50;0.70;;;;;;;16.73;60.57;98254.22;6165815;28;20246;-56
2023/10/08 10:05:13;;;;;;;2.33;0.90;;;;;;;16.68;61.19;98244.22;6190739;28;20228;-57
2023/10/08 10:08:15;;;;;;;3.70;0.97;;;;;;;16.63;61.79;98267.63;6155583;28;20234;-60
2023/10/08 10:11:17;;;;;;;3.60;0.67;;;;;;;16.55;61.65;98266.28;6164154;28;20747;-59
2023/10/08 10:14:24;;;;;;;0.70;0.50;;;;;;;16.55;60.83;98273.53;6163754;28;20284;-57
2023/10/08 10:17:30;;;;;;;0.50;0.40;;;;;;;16.45;61.55;98271.63;6168693;28;20728;-59
2023/10/08 10:20:51;;;;;;;1.47;0.50;;;;;;;16.36;62.11;98290.16;6159790;28;20807;-59
2023/10/08 10:23:54;;;;;;;2.63;0.40;;;;;;;16.25;62.04;98308.16;6169307;28;20282;-57
2023/10/08 10:27:10;;;;;;;0.27;0.20;;;;;;;16.15;62.41;98308.06;6164260;28;20820;-58
2023/10/08 10:30:18;;;;;;;0.63;0.37;;;;;;;16.09;62.71;98311.00;6155447;28;20650;-54
2023/10/08 10:33:32;;;;;;;1.57;0.30;;;;;;;16.00;63.26;98319.56;6142468;28;20217;-59
2023/10/08 10:36:40;;;;;;;2.17;0.33;;;;;;;15.82;64.05;98308.47;6160746;28;20248;-59
2023/10/08 10:39:42;;;;;;;0.80;0.43;;;;;;;15.89;64.36;98320.59;6168731;28;20239;-54
2023/10/08 10:42:53;;;;;;;0.30;0.30;;;;;;;15.77;65.07;98319.19;6168660;28;20239;-59
2023/10/08 10:45:56;;;;;;;0.60;0.20;;;;;;;15.72;65.66;98328.03;6170441;28;20279;-59
2023/10/08 10:49:21;;;;;;;0.30;0.30;;;;;;;15.59;67.43;98334.59;6168704;28;20234;-58
2023/10/08 10:52:32;;;;;;;0.30;0.30;;;;;;;15.30;69.11;98325.25;6148493;28;20238;-59
2023/10/08 10:55:35;;;;;;;1.37;0.20;;;;;;;15.16;69.77;98317.63;6165231;28;20238;-59
2023/10/08 10:58:40;;;;;;;1.90;0.30;;;;;;;15.14;70.80;98351.97;6169271;28;20237;-58
2023/10/08 11:01:46;;;;;;;0.47;0.20;;;;;;;15.04;71.46;98359.94;6167427;28;20829;-59
2023/10/08 11:04:49;;;;;;;0.43;0.30;;;;;;;15.06;71.97;98347.06;6169621;28;20225;-59
2023/10/08 11:07:51;;;;;;;0.27;0.27;;;;;;;15.00;72.15;98366.06;6180363;28;20640;-59
2023/10/08 11:10:58;;;;;;;0.20;0.20;;;;;;;14.92;73.74;98369.97;6167201;28;20900;-54
2023/10/08 11:14:00;;;;;;;0.20;0.20;;;;;;;14.75;75.58;98383.50;6154860;28;20226;-59
2023/10/08 11:17:14;;;;;;;0.43;0.30;;;;;;;14.64;75.28;98387.13;6159871;28;20255;-58
2023/10/08 11:20:27;;;;;;;0.20;0.20;;;;;;;14.45;76.36;98370.53;6162847;28;20611;-59
2023/10/08 11:23:41;;;;;;;0.37;0.20;;;;;;;14.35;76.36;98381.91;6169735;28;20327;-58
2023/10/08 11:27:06;;;;;;;0.97;0.20;;;;;;;14.24;75.40;98368.66;6172009;28;20245;-58
2023/10/08 11:30:10;;;;;;;2.37;0.30;;;;;;;14.08;76.07;98392.53;6172667;28;20242;-60
2023/10/08 11:33:15;;;;;;;0.63;0.20;;;;;;;13.97;77.76;98376.56;6176454;28;20639;-55
2023/10/08 11:36:27;;;;;;;0.47;0.40;;;;;;;13.83;79.17;98381.47;6173579;28;20622;-60
2023/10/08 11:39:45;;;;;;;1.33;0.30;;;;;;;13.75;80.97;98376.53;6172678;28;20230;-60
2023/10/08 11:42:51;;;;;;;0.20;0.20;;;;;;;13.66;82.81;98389.50;6170014;28;20234;-57
2023/10/08 11:45:53;;;;;;;0.20;0.20;;;;;;;13.53;83.66;98400.53;6171538;28;20230;-60
2023/10/08 11:48:58;;;;;;;0.20;0.20;;;;;;;13.38;85.57;98401.91;6170524;28;20244;-57
2023/10/08 11:52:00;;;;;;;0.10;0.10;;;;;;;13.21;84.16;98411.75;6170481;28;20234;-61
2023/10/08 11:55:06;;;;;;;0.20;0.20;;;;;;;13.16;80.10;98407.13;6160354;23;20237;-54
2023/10/08 11:58:11;;;;;;;0.30;0.30;;;;;;;12.95;80.51;98399.75;6156077;28;20245;-51
2023/10/08 12:01:17;;;;;;;0.20;0.20;;;;;;;12.89;80.39;98408.75;6141996;28;20661;-53
2023/10/08 12:04:22;;;;;;;0.20;0.20;;;;;;;12.88;78.46;98418.63;6145316;28;20242;-50
2023/10/08 12:07:27;;;;;;;0.30;0.20;;;;;;;12.63;79.21;98410.94;6147498;28;20242;-52
2023/10/08 12:10:34;;;;;;;0.30;0.30;;;;;;;12.65;78.85;98414.16;6151623;28;20249;-51
2023/10/08 12:13:36;;;;;;;0.53;0.20;;;;;;;12.66;78.98;98425.69;6148525;28;20701;-52
2023/10/08 12:16:40;;;;;;;0.30;0.30;;;;;;;12.67;77.82;98437.19;6148760;28;20240;-52
2023/10/08 12:19:42;;;;;;;0.37;0.30;;;;;;;12.62;78.03;98443.25;6153849;28;20744;-51
2023/10/08 12:22:45;;;;;;;0.20;0.20;;;;;;;12.44;79.50;98443.41;6153767;28;20338;-48
2023/10/08 12:25:51;;;;;;;0.50;0.30;;;;;;;12.35;79.26;98448.28;6150005;28;20244;-51
2023/10/08 12:28:55;;;;;;;0.20;0.20;;;;;;;12.20;78.69;98462.09;6148893;28;20229;-53
2023/10/08 12:31:59;;;;;;;0.20;0.20;;;;;;;12.12;79.18;98470.50;6146029;28;20241;-52
2023/10/08 12:35:01;;;;;;;0.47;0.30;;;;;;;12.08;78.64;98475.47;6147375;28;20264;-52
2023/10/08 12:38:05;;;;;;;0.20;0.20;;;;;;;11.79;81.37;98484.34;6150531;28;20241;-52
2023/10/08 12:45:12;;;;;;;0.30;0.30;;;;;;;11.23;85.54;98486.41;6116725;28;20284;-61
2023/10/08 12:48:15;;;;;;;0.30;0.30;;;;;;;11.03;87.45;98483.16;6115770;28;20214;-61
2023/10/08 12:51:17;;;;;;;0.53;0.40;;;;;;;10.81;89.79;98480.97;6122639;28;20221;-61
2023/10/08 12:54:24;;;;;;;0.70;0.40;;;;;;;10.61;92.92;98498.22;6120653;28;20305;-61
2023/10/08 12:57:32;;;;;;;1.00;0.50;;;;;;;10.43;94.40;98499.84;6119381;28;20721;-61
2023/10/08 13:00:37;;;;;;;0.60;0.43;;;;;;;10.32;95.78;98496.06;6126792;28;20294;-61
2023/10/08 13:03:41;;;;;;;1.10;0.70;;;;;;;10.19;96.57;98487.34;6128435;28;20602;-60
2023/10/08 13:06:45;;;;;;;1.30;0.90;;;;;;;10.15;98.42;98502.97;6127742;28;20237;-60
2023/10/08 13:09:48;;;;;;;0.60;0.60;;;;;;;10.00;99.01;98491.81;6121508;28;20238;-59
2023/10/08 13:12:51;;;;;;;2.50;1.20;;;;;;;9.88;100.00;98482.91;6117664;28;20241;-61
2023/10/08 13:15:56;;;;;;;0.70;0.60;;;;;;;9.91;100.00;98491.28;6121847;28;20728;-60
2023/10/08 13:18:59;;;;;;;3.03;0.80;;;;;;;9.87;100.00;98498.06;6122228;28;20233;-59
2023/10/08 13:22:06;;;;;;;2.27;0.80;;;;;;;9.66;100.00;98467.31;6119245;28;20229;-59
2023/10/08 13:25:12;;;;;;;1.57;0.87;;;;;;;9.80;100.00;98494.63;6117150;28;20282;-59
2023/10/08 13:28:14;;;;;;;1.43;1.00;;;;;;;9.78;100.00;98510.00;6127599;28;20275;-59
2023/10/08 13:31:19;;;;;;;0.80;0.73;;;;;;;9.77;100.00;98514.50;6124386;28;20246;-58
2023/10/08 13:34:22;;;;;;;1.30;0.80;;;;;;;9.81;100.00;98514.91;6115369;28;20245;-59
2023/10/08 13:37:26;;;;;;;1.53;1.07;;;;;;;9.82;100.00;98530.66;6122668;28;20304;-58
2023/10/08 13:40:32;;;;;;;0.77;0.60;;;;;;;9.82;100.00;98527.19;6126727;28;20233;-57
2023/10/08 13:43:35;;;;;;;0.73;0.67;;;;;;;9.86;100.00;98532.88;6122008;28;20319;-58
2023/10/08 13:46:42;;;;;;;1.47;1.13;;;;;;;9.86;100.00;98525.72;6123997;28;20240;-58
2023/10/08 13:49:47;;;;;;;1.60;0.90;;;;;;;9.86;100.00;98531.03;6130206;28;20248;-58
2023/10/08 13:52:52;;;;;;;1.73;1.30;;;;;;;9.86;100.00;98530.22;6120521;28;20237;-58
2023/10/08 13:56:00;;;;;;;1.23;0.80;;;;;;;9.87;100.00;98527.34;6127622;28;20251;-59
2023/10/08 13:59:11;;;;;;;3.03;1.10;;;;;;;9.87;100.00;98529.19;6124538;28;20253;-58
2023/10/08 14:02:15;;;;;;;1.27;0.90;;;;;;;9.85;100.00;98526.72;6121222;28;20234;-58
2023/10/08 14:05:21;;;;;;;1.33;0.80;;;;;;;9.89;100.00;98543.09;6119140;28;20603;-58
2023/10/08 14:08:28;;;;;;;2.27;1.30;;;;;;;9.84;100.00;98535.75;6123681;28;20253;-58
2023/10/08 14:11:33;;;;;;;1.57;1.17;;;;;;;9.81;100.00;98541.50;6123744;28;20610;-58
2023/10/08 14:14:40;;;;;;;1.23;1.10;;;;;;;9.78;100.00;98541.94;6130368;28;20229;-59
2023/10/08 14:17:53;;;;;;;2.00;1.10;;;;;;;9.80;100.00;98534.53;6122104;28;20244;-56
2023/10/08 14:20:56;;;;;;;2.40;1.27;;;;;;;9.83;100.00;98548.25;6129365;28;20233;-58
2023/10/08 14:24:02;;;;;;;2.30;1.20;;;;;;;9.87;100.00;98540.66;6120555;28;20234;-58
2023/10/08 14:27:14;;;;;;;1.60;1.00;;;;;;;9.93;100.00;98549.63;6120833;28;20233;-59
2023/10/08 14:30:23;;;;;;;1.00;0.83;;;;;;;9.89;100.00;98546.56;6120834;28;20225;-58
2023/10/08 14:33:31;;;;;;;1.10;0.87;;;;;;;9.92;100.00;98559.44;6119286;28;20315;-58
2023/10/08 14:43:20;;;;;;;1.70;1.23;;;;;;;9.83;100.00;98558.88;6120764;28;20328;-58
2023/10/08 14:46:24;;;;;;;1.10;1.00;;;;;;;9.85;100.00;98563.97;6117868;28;20270;-58
2023/10/08 14:49:27;;;;;;;2.50;1.27;;;;;;;9.83;100.00;98561.53;6117977;28;20373;-58
2023/10/08 14:52:33;;;;;;;3.80;1.70;;;;;;;9.83;100.00;98571.38;6109622;28;21402;-60
2023/10/08 14:55:36;;;;;;;3.47;1.57;;;;;;;9.80;100.00;98566.47;6122680;28;20239;-59
2023/10/08 14:58:41;;;;;;;2.30;1.30;;;;;;;9.77;100.00;98566.91;6112287;28;20233;-58
2023/10/08 15:01:47;;;;;;;2.20;1.23;;;;;;;9.66;100.00;98546.31;6114854;28;20277;-57
2023/10/08 15:04:50;;;;;;;2.33;1.80;;;;;;;9.59;100.00;98548.19;6120137;28;20226;-58
2023/10/08 15:07:53;;;;;;;2.33;1.33;;;;;;;9.72;100.00;98569.41;6125470;28;20233;-58
2023/10/08 15:10:56;;;;;;;3.33;1.40;;;;;;;9.77;100.00;98580.22;6117756;28;20702;-58
2023/10/08 15:13:59;;;;;;;1.67;1.40;;;;;;;9.65;100.00;98539.34;6118992;28;20238;-58
2023/10/08 15:17:02;;;;;;;1.50;1.00;;;;;;;9.78;100.00;98564.03;6122916;28;20234;-59
2023/10/08 15:20:06;;;;;;;1.80;1.40;;;;;;;9.73;100.00;98573.69;6124961;28;20253;-58
2023/10/08 15:23:12;;;;;;;1.37;1.10;;;;;;;9.76;100.00;98581.25;6132312;28;20276;-59
2023/10/08 15:26:17;;;;;;;1.77;1.40;;;;;;;9.77;100.00;98589.03;6119312;28;20233;-58
2023/10/08 15:29:21;;;;;;;1.30;1.10;;;;;;;9.79;100.00;98583.47;6122885;28;20706;-58
2023/10/08 15:32:25;;;;;;;4.30;1.47;;;;;;;9.74;100.00;98578.78;6119760;28;20338;-58
2023/10/08 15:35:28;;;;;;;1.97;1.37;;;;;;;9.75;100.00;98582.28;6111785;28;20919;-59
2023/10/08 15:38:31;;;;;;;1.30;1.20;;;;;;;9.66;100.00;98579.06;6129355;28;20244;-58